sensor_id;sensor_type;location;lat;lon;timestamp;pressure;altitude;pressure_sealevel;temperature;humidity
32197;BME280;18697;42.770;23.400;2023-03-20T00:01:29;95978.66;;;7.81;57.90
32197;BME280;18697;42.770;23.400;2023-03-20T00:03:56;95980.56;;;7.84;57.51
32197;BME280;18697;42.770;23.400;2023-03-20T00:06:24;95975.06;;;7.68;57.17
32197;BME280;18697;42.770;23.400;2023-03-20T00:08:52;95979.91;;;7.64;57.51
32197;BME280;18697;42.770;23.400;2023-03-20T00:11:29;95978.38;;;7.63;57.67
32197;BME280;18697;42.770;23.400;2023-03-20T00:13:57;95968.09;;;7.63;57.84
32197;BME280;18697;42.770;23.400;2023-03-20T00:16:28;95955.31;;;7.53;58.16
32197;BME280;18697;42.770;23.400;2023-03-20T00:18:55;95964.88;;;7.65;57.96
32197;BME280;18697;42.770;23.400;2023-03-20T00:21:20;95959.47;;;7.61;58.01
32197;BME280;18697;42.770;23.400;2023-03-20T00:23:46;95957.66;;;7.54;57.68
32197;BME280;18697;42.770;23.400;2023-03-20T00:26:16;95949.91;;;7.49;57.98
32197;BME280;18697;42.770;23.400;2023-03-20T00:28:46;95954.88;;;7.54;57.71
32197;BME280;18697;42.770;23.400;2023-03-20T00:33:44;95950.22;;;7.51;57.97
32197;BME280;18697;42.770;23.400;2023-03-20T00:36:09;95946.16;;;7.56;57.64
32197;BME280;18697;42.770;23.400;2023-03-20T00:38:35;95953.94;;;7.61;57.73
32197;BME280;18697;42.770;23.400;2023-03-20T00:41:00;95951.41;;;7.67;57.65
32197;BME280;18697;42.770;23.400;2023-03-20T00:43:26;95947.63;;;7.61;57.38
32197;BME280;18697;42.770;23.400;2023-03-20T00:45:52;95952.56;;;7.53;57.25
32197;BME280;18697;42.770;23.400;2023-03-20T00:48:17;95946.84;;;7.60;57.79
32197;BME280;18697;42.770;23.400;2023-03-20T00:50:43;95957.22;;;7.56;57.54
32197;BME280;18697;42.770;23.400;2023-03-20T00:53:10;95948.22;;;7.39;59.07
32197;BME280;18697;42.770;23.400;2023-03-20T00:55:36;95936.84;;;7.21;59.52
32197;BME280;18697;42.770;23.400;2023-03-20T00:58:03;95949.44;;;7.38;60.15
32197;BME280;18697;42.770;23.400;2023-03-20T01:00:37;95947.66;;;7.44;60.07
32197;BME280;18697;42.770;23.400;2023-03-20T01:05:37;95932.88;;;7.22;59.89
32197;BME280;18697;42.770;23.400;2023-03-20T01:08:09;95943.16;;;7.21;60.12
32197;BME280;18697;42.770;23.400;2023-03-20T01:10:35;95948.00;;;7.17;59.48
32197;BME280;18697;42.770;23.400;2023-03-20T01:13:01;95938.88;;;7.04;59.33
32197;BME280;18697;42.770;23.400;2023-03-20T01:15:30;95934.53;;;7.03;59.43
32197;BME280;18697;42.770;23.400;2023-03-20T01:17:56;95928.16;;;6.90;59.50
32197;BME280;18697;42.770;23.400;2023-03-20T01:20:25;95928.78;;;6.98;59.37
32197;BME280;18697;42.770;23.400;2023-03-20T01:22:51;95931.00;;;7.03;59.26
32197;BME280;18697;42.770;23.400;2023-03-20T01:25:16;95932.91;;;7.06;58.78
32197;BME280;18697;42.770;23.400;2023-03-20T01:27:50;95948.19;;;7.10;58.66
32197;BME280;18697;42.770;23.400;2023-03-20T01:30:23;95942.41;;;7.05;58.52
32197;BME280;18697;42.770;23.400;2023-03-20T01:32:50;95939.47;;;6.96;58.57
32197;BME280;18697;42.770;23.400;2023-03-20T01:35:19;95944.41;;;6.88;58.89
32197;BME280;18697;42.770;23.400;2023-03-20T01:37:45;95937.06;;;6.81;59.20
32197;BME280;18697;42.770;23.400;2023-03-20T01:40:34;95940.34;;;6.76;58.66
32197;BME280;18697;42.770;23.400;2023-03-20T01:43:01;95932.34;;;6.66;59.02
32197;BME280;18697;42.770;23.400;2023-03-20T01:45:33;95935.09;;;6.66;59.28
32197;BME280;18697;42.770;23.400;2023-03-20T01:48:04;95944.31;;;6.59;59.70
32197;BME280;18697;42.770;23.400;2023-03-20T01:50:36;95938.88;;;6.55;59.67
32197;BME280;18697;42.770;23.400;2023-03-20T01:53:17;95949.81;;;6.43;60.13
32197;BME280;18697;42.770;23.400;2023-03-20T01:55:46;95952.97;;;6.25;60.77
32197;BME280;18697;42.770;23.400;2023-03-20T01:58:18;95943.53;;;6.06;61.15
32197;BME280;18697;42.770;23.400;2023-03-20T02:00:46;95944.72;;;5.89;61.94
32197;BME280;18697;42.770;23.400;2023-03-20T02:03:14;95955.25;;;5.94;62.19
32197;BME280;18697;42.770;23.400;2023-03-20T02:05:41;95940.16;;;5.99;62.05
32197;BME280;18697;42.770;23.400;2023-03-20T02:10:36;95924.94;;;6.10;61.13
32197;BME280;18697;42.770;23.400;2023-03-20T02:13:02;95930.44;;;6.10;61.63
32197;BME280;18697;42.770;23.400;2023-03-20T02:15:29;95921.41;;;6.10;61.63
32197;BME280;18697;42.770;23.400;2023-03-20T02:17:55;95921.31;;;6.13;61.49
32197;BME280;18697;42.770;23.400;2023-03-20T02:20:35;95926.03;;;5.77;62.13
32197;BME280;18697;42.770;23.400;2023-03-20T02:37:42;95932.25;;;5.41;65.90
32197;BME280;18697;42.770;23.400;2023-03-20T02:51:22;95933.88;;;5.78;63.12
32197;BME280;18697;42.770;23.400;2023-03-20T02:57:03;95926.03;;;5.77;62.08
32197;BME280;18697;42.770;23.400;2023-03-20T03:02:29;95932.88;;;5.69;61.75
32197;BME280;18697;42.770;23.400;2023-03-20T03:05:01;95934.09;;;5.68;62.05
32197;BME280;18697;42.770;23.400;2023-03-20T03:07:31;95937.41;;;5.59;62.32
32197;BME280;18697;42.770;23.400;2023-03-20T03:10:05;95930.91;;;5.49;62.31
32197;BME280;18697;42.770;23.400;2023-03-20T03:12:35;95927.94;;;5.40;62.63
32197;BME280;18697;42.770;23.400;2023-03-20T03:15:05;95924.47;;;5.36;62.63
32197;BME280;18697;42.770;23.400;2023-03-20T03:17:34;95917.19;;;5.26;62.99
32197;BME280;18697;42.770;23.400;2023-03-20T03:20:06;95933.22;;;5.31;63.34
32197;BME280;18697;42.770;23.400;2023-03-20T03:22:33;95919.94;;;5.26;63.28
32197;BME280;18697;42.770;23.400;2023-03-20T03:25:00;95921.97;;;5.22;63.31
32197;BME280;18697;42.770;23.400;2023-03-20T03:27:36;95928.28;;;5.42;63.18
32197;BME280;18697;42.770;23.400;2023-03-20T03:30:06;95930.19;;;5.45;63.24
32197;BME280;18697;42.770;23.400;2023-03-20T03:32:45;95930.69;;;5.40;62.81
32197;BME280;18697;42.770;23.400;2023-03-20T03:35:17;95932.25;;;5.41;62.55
32197;BME280;18697;42.770;23.400;2023-03-20T03:37:59;95933.72;;;5.46;62.12
32197;BME280;18697;42.770;23.400;2023-03-20T03:40:41;95925.75;;;5.51;62.03
32197;BME280;18697;42.770;23.400;2023-03-20T03:43:16;95936.78;;;5.51;61.43
32197;BME280;18697;42.770;23.400;2023-03-20T03:45:50;95937.47;;;5.55;61.46
32197;BME280;18697;42.770;23.400;2023-03-20T03:48:22;95931.97;;;5.55;61.64
32197;BME280;18697;42.770;23.400;2023-03-20T03:50:53;95927.44;;;5.45;61.95
32197;BME280;18697;42.770;23.400;2023-03-20T03:54:16;95930.63;;;5.44;62.12
32197;BME280;18697;42.770;23.400;2023-03-20T03:56:19;95916.19;;;5.36;62.57
32197;BME280;18697;42.770;23.400;2023-03-20T03:58:48;95925.72;;;5.32;63.00
32197;BME280;18697;42.770;23.400;2023-03-20T04:01:16;95923.69;;;5.36;63.19
32197;BME280;18697;42.770;23.400;2023-03-20T04:03:47;95928.28;;;5.42;62.97
32197;BME280;18697;42.770;23.400;2023-03-20T04:06:15;95915.44;;;5.36;63.09
32197;BME280;18697;42.770;23.400;2023-03-20T04:08:41;95916.50;;;5.42;63.14
32197;BME280;18697;42.770;23.400;2023-03-20T04:11:15;95913.31;;;5.43;62.88
32197;BME280;18697;42.770;23.400;2023-03-20T04:13:41;95904.69;;;5.41;62.62
32197;BME280;18697;42.770;23.400;2023-03-20T04:16:14;95904.63;;;5.45;62.73
32197;BME280;18697;42.770;23.400;2023-03-20T04:18:40;95910.78;;;5.52;62.15
32197;BME280;18697;42.770;23.400;2023-03-20T04:21:06;95902.50;;;5.33;62.71
32197;BME280;18697;42.770;23.400;2023-03-20T04:23:32;95899.88;;;5.06;63.12
32197;BME280;18697;42.770;23.400;2023-03-20T04:25:58;95902.72;;;4.55;65.72
32197;BME280;18697;42.770;23.400;2023-03-20T04:28:23;95911.16;;;4.68;65.97
32197;BME280;18697;42.770;23.400;2023-03-20T04:30:56;95908.22;;;4.79;65.51
32197;BME280;18697;42.770;23.400;2023-03-20T04:33:23;95906.97;;;4.60;66.33
32197;BME280;18697;42.770;23.400;2023-03-20T04:35:49;95911.22;;;4.65;66.73
32197;BME280;18697;42.770;23.400;2023-03-20T04:38:15;95923.19;;;4.78;66.69
32197;BME280;18697;42.770;23.400;2023-03-20T04:40:40;95929.22;;;4.92;66.67
32197;BME280;18697;42.770;23.400;2023-03-20T04:43:06;95926.47;;;4.92;66.94
32197;BME280;18697;42.770;23.400;2023-03-20T04:45:31;95922.75;;;5.03;67.70
32197;BME280;18697;42.770;23.400;2023-03-20T04:47:56;95934.34;;;5.14;67.26
32197;BME280;18697;42.770;23.400;2023-03-20T04:50:22;95936.53;;;5.22;67.02
32197;BME280;18697;42.770;23.400;2023-03-20T04:52:47;95940.47;;;5.21;66.49
32197;BME280;18697;42.770;23.400;2023-03-20T04:55:13;95942.19;;;5.35;66.58
32197;BME280;18697;42.770;23.400;2023-03-20T04:57:39;95944.31;;;5.47;66.54
32197;BME280;18697;42.770;23.400;2023-03-20T05:00:05;95944.31;;;5.27;66.57
32197;BME280;18697;42.770;23.400;2023-03-20T05:02:31;95943.03;;;5.32;67.06
32197;BME280;18697;42.770;23.400;2023-03-20T05:04:56;95955.06;;;5.42;67.27
32197;BME280;18697;42.770;23.400;2023-03-20T05:07:22;95949.28;;;5.56;67.02
32197;BME280;18697;42.770;23.400;2023-03-20T05:09:47;95959.97;;;5.74;66.65
32197;BME280;18697;42.770;23.400;2023-03-20T05:12:13;95962.28;;;5.75;65.38
32197;BME280;18697;42.770;23.400;2023-03-20T05:14:38;95956.78;;;5.75;64.21
32197;BME280;18697;42.770;23.400;2023-03-20T05:17:03;95961.00;;;5.80;63.44
32197;BME280;18697;42.770;23.400;2023-03-20T05:19:29;95970.47;;;5.79;62.36
32197;BME280;18697;42.770;23.400;2023-03-20T05:21:55;95970.47;;;5.79;62.28
32197;BME280;18697;42.770;23.400;2023-03-20T05:24:20;95972.88;;;5.77;62.14
32197;BME280;18697;42.770;23.400;2023-03-20T05:26:46;95966.09;;;5.81;62.04
32197;BME280;18697;42.770;23.400;2023-03-20T05:29:11;95968.31;;;5.90;61.67
32197;BME280;18697;42.770;23.400;2023-03-20T05:31:37;95972.63;;;5.91;62.47
32197;BME280;18697;42.770;23.400;2023-03-20T05:34:02;95969.69;;;5.98;63.04
32197;BME280;18697;42.770;23.400;2023-03-20T05:36:29;95978.69;;;6.02;62.67
32197;BME280;18697;42.770;23.400;2023-03-20T05:38:55;95975.16;;;6.02;62.78
32197;BME280;18697;42.770;23.400;2023-03-20T05:41:21;95974.66;;;6.07;63.09
32197;BME280;18697;42.770;23.400;2023-03-20T05:43:47;95970.59;;;6.11;63.12
32197;BME280;18697;42.770;23.400;2023-03-20T05:46:12;95973.72;;;6.13;63.58
32197;BME280;18697;42.770;23.400;2023-03-20T05:48:37;95976.19;;;6.28;63.73
32197;BME280;18697;42.770;23.400;2023-03-20T05:51:03;95970.16;;;6.33;63.77
32197;BME280;18697;42.770;23.400;2023-03-20T05:53:29;95974.31;;;6.41;63.51
32197;BME280;18697;42.770;23.400;2023-03-20T05:55:54;95962.41;;;6.44;63.95
32197;BME280;18697;42.770;23.400;2023-03-20T05:58:19;95967.78;;;6.51;63.50
32197;BME280;18697;42.770;23.400;2023-03-20T06:00:45;95965.47;;;6.66;62.73
32197;BME280;18697;42.770;23.400;2023-03-20T06:03:10;95974.84;;;6.84;62.71
32197;BME280;18697;42.770;23.400;2023-03-20T06:05:36;95972.44;;;7.03;62.15
32197;BME280;18697;42.770;23.400;2023-03-20T06:08:02;95968.44;;;7.20;61.43
32197;BME280;18697;42.770;23.400;2023-03-20T06:10:28;95970.09;;;7.17;62.19
32197;BME280;18697;42.770;23.400;2023-03-20T06:12:55;95973.91;;;7.23;61.85
32197;BME280;18697;42.770;23.400;2023-03-20T06:15:21;95970.88;;;6.85;63.13
32197;BME280;18697;42.770;23.400;2023-03-20T06:17:46;95971.75;;;7.15;63.43
32197;BME280;18697;42.770;23.400;2023-03-20T06:20:12;95974.66;;;7.24;63.92
32197;BME280;18697;42.770;23.400;2023-03-20T06:22:37;95979.63;;;7.45;63.73
32197;BME280;18697;42.770;23.400;2023-03-20T06:25:04;95974.09;;;7.45;63.34
32197;BME280;18697;42.770;23.400;2023-03-20T06:27:30;95969.50;;;7.55;63.83
32197;BME280;18697;42.770;23.400;2023-03-20T06:29:56;95968.78;;;7.38;64.43
32197;BME280;18697;42.770;23.400;2023-03-20T06:32:21;95965.28;;;7.50;64.23
32197;BME280;18697;42.770;23.400;2023-03-20T06:34:46;95974.94;;;7.58;64.73
32197;BME280;18697;42.770;23.400;2023-03-20T06:37:12;95968.88;;;7.64;64.80
32197;BME280;18697;42.770;23.400;2023-03-20T06:39:38;95971.91;;;7.24;66.05
32197;BME280;18697;42.770;23.400;2023-03-20T06:42:03;95965.94;;;7.25;67.45
32197;BME280;18697;42.770;23.400;2023-03-20T06:44:29;95975.31;;;7.44;66.41
32197;BME280;18697;42.770;23.400;2023-03-20T06:46:54;95967.84;;;7.57;65.35
32197;BME280;18697;42.770;23.400;2023-03-20T06:49:20;95963.97;;;7.55;65.67
32197;BME280;18697;42.770;23.400;2023-03-20T06:51:45;95964.50;;;7.79;65.24
32197;BME280;18697;42.770;23.400;2023-03-20T06:54:12;95968.63;;;7.87;65.20
32197;BME280;18697;42.770;23.400;2023-03-20T06:56:38;95973.03;;;7.55;65.47
32197;BME280;18697;42.770;23.400;2023-03-20T06:59:03;95962.47;;;7.67;66.02
32197;BME280;18697;42.770;23.400;2023-03-20T07:01:28;95962.13;;;7.65;65.21
32197;BME280;18697;42.770;23.400;2023-03-20T07:03:54;95959.06;;;7.75;65.84
32197;BME280;18697;42.770;23.400;2023-03-20T07:06:19;95958.91;;;7.95;64.56
32197;BME280;18697;42.770;23.400;2023-03-20T07:08:45;95959.28;;;8.22;64.07
32197;BME280;18697;42.770;23.400;2023-03-20T07:11:11;95959.00;;;8.46;63.39
32197;BME280;18697;42.770;23.400;2023-03-20T07:13:36;95956.78;;;8.79;62.44
32197;BME280;18697;42.770;23.400;2023-03-20T07:16:02;95956.06;;;9.13;61.65
32197;BME280;18697;42.770;23.400;2023-03-20T07:18:27;95946.00;;;9.41;60.70
32197;BME280;18697;42.770;23.400;2023-03-20T07:20:57;95954.03;;;9.61;60.45
32197;BME280;18697;42.770;23.400;2023-03-20T07:23:23;95948.50;;;9.61;60.50
32197;BME280;18697;42.770;23.400;2023-03-20T07:25:48;95953.38;;;9.78;59.66
32197;BME280;18697;42.770;23.400;2023-03-20T07:28:14;95950.28;;;9.98;58.41
32197;BME280;18697;42.770;23.400;2023-03-20T07:30:39;95957.66;;;9.92;58.62
32197;BME280;18697;42.770;23.400;2023-03-20T07:33:06;95950.56;;;10.44;58.40
32197;BME280;18697;42.770;23.400;2023-03-20T07:35:32;95943.16;;;10.81;56.82
32197;BME280;18697;42.770;23.400;2023-03-20T07:37:57;95948.03;;;11.17;54.85
32197;BME280;18697;42.770;23.400;2023-03-20T07:40:22;95942.63;;;11.23;54.31
32197;BME280;18697;42.770;23.400;2023-03-20T07:42:47;95949.34;;;11.52;55.23
32197;BME280;18697;42.770;23.400;2023-03-20T07:45:14;95941.63;;;11.75;53.75
32197;BME280;18697;42.770;23.400;2023-03-20T07:47:41;95940.06;;;11.92;53.17
32197;BME280;18697;42.770;23.400;2023-03-20T07:50:07;95947.94;;;12.03;52.87
32197;BME280;18697;42.770;23.400;2023-03-20T07:52:32;95942.22;;;12.06;52.45
32197;BME280;18697;42.770;23.400;2023-03-20T07:54:58;95941.13;;;12.04;52.57
32197;BME280;18697;42.770;23.400;2023-03-20T07:57:23;95942.50;;;12.27;52.78
32197;BME280;18697;42.770;23.400;2023-03-20T07:59:49;95942.16;;;12.34;52.02
32197;BME280;18697;42.770;23.400;2023-03-20T08:02:16;95945.84;;;12.49;52.31
32197;BME280;18697;42.770;23.400;2023-03-20T08:04:42;95948.16;;;12.50;51.66
32197;BME280;18697;42.770;23.400;2023-03-20T08:07:08;95939.47;;;12.58;51.23
32197;BME280;18697;42.770;23.400;2023-03-20T08:09:33;95940.25;;;12.58;51.50
32197;BME280;18697;42.770;23.400;2023-03-20T08:11:59;95943.56;;;12.71;51.12
32197;BME280;18697;42.770;23.400;2023-03-20T08:14:24;95944.28;;;12.90;50.52
32197;BME280;18697;42.770;23.400;2023-03-20T08:16:50;95936.56;;;13.18;49.50
32197;BME280;18697;42.770;23.400;2023-03-20T08:19:15;95931.25;;;13.68;49.04
32197;BME280;18697;42.770;23.400;2023-03-20T08:21:40;95930.28;;;13.71;48.27
32197;BME280;18697;42.770;23.400;2023-03-20T08:24:06;95933.06;;;14.09;47.44
32197;BME280;18697;42.770;23.400;2023-03-20T08:26:32;95926.34;;;14.45;48.02
32197;BME280;18697;42.770;23.400;2023-03-20T08:28:58;95933.09;;;14.68;46.28
32197;BME280;18697;42.770;23.400;2023-03-20T08:31:23;95939.34;;;14.78;45.70
32197;BME280;18697;42.770;23.400;2023-03-20T08:33:49;95931.03;;;14.84;45.81
32197;BME280;18697;42.770;23.400;2023-03-20T08:36:15;95933.56;;;15.02;45.86
32197;BME280;18697;42.770;23.400;2023-03-20T08:38:41;95932.72;;;14.96;45.00
32197;BME280;18697;42.770;23.400;2023-03-20T08:41:07;95936.53;;;14.78;45.28
32197;BME280;18697;42.770;23.400;2023-03-20T08:43:32;95938.31;;;14.96;45.87
32197;BME280;18697;42.770;23.400;2023-03-20T08:45:57;95929.94;;;15.51;44.93
32197;BME280;18697;42.770;23.400;2023-03-20T08:48:23;95928.81;;;15.63;43.52
32197;BME280;18697;42.770;23.400;2023-03-20T08:50:49;95926.78;;;15.84;43.56
32197;BME280;18697;42.770;23.400;2023-03-20T08:53:15;95921.97;;;15.44;44.19
32197;BME280;18697;42.770;23.400;2023-03-20T08:55:40;95921.03;;;15.32;43.88
32197;BME280;18697;42.770;23.400;2023-03-20T08:58:11;95917.75;;;15.74;43.83
32197;BME280;18697;42.770;23.400;2023-03-20T09:00:37;95916.81;;;16.03;43.11
32197;BME280;18697;42.770;23.400;2023-03-20T09:03:02;95904.28;;;15.99;43.10
32197;BME280;18697;42.770;23.400;2023-03-20T09:05:28;95901.22;;;16.23;43.81
32197;BME280;18697;42.770;23.400;2023-03-20T09:07:53;95907.47;;;16.38;42.55
32197;BME280;18697;42.770;23.400;2023-03-20T09:10:18;95909.13;;;16.82;42.71
32197;BME280;18697;42.770;23.400;2023-03-20T09:12:44;95904.47;;;16.47;41.50
32197;BME280;18697;42.770;23.400;2023-03-20T09:15:09;95896.03;;;17.10;41.53
32197;BME280;18697;42.770;23.400;2023-03-20T09:17:36;95895.00;;;17.56;40.18
32197;BME280;18697;42.770;23.400;2023-03-20T09:20:01;95899.06;;;17.49;39.81
32197;BME280;18697;42.770;23.400;2023-03-20T09:22:27;95890.53;;;17.75;40.37
32197;BME280;18697;42.770;23.400;2023-03-20T09:24:52;95888.78;;;17.94;40.70
32197;BME280;18697;42.770;23.400;2023-03-20T09:27:17;95889.56;;;18.00;40.80
32197;BME280;18697;42.770;23.400;2023-03-20T09:29:43;95873.25;;;18.16;38.85
32197;BME280;18697;42.770;23.400;2023-03-20T09:32:13;95877.09;;;18.35;37.30
32197;BME280;18697;42.770;23.400;2023-03-20T09:34:38;95873.28;;;18.38;38.30
32197;BME280;18697;42.770;23.400;2023-03-20T09:37:04;95865.09;;;18.51;38.01
32197;BME280;18697;42.770;23.400;2023-03-20T09:39:31;95858.97;;;18.81;39.71
32197;BME280;18697;42.770;23.400;2023-03-20T09:42:01;95858.69;;;18.90;36.99
32197;BME280;18697;42.770;23.400;2023-03-20T09:47:16;95854.47;;;19.35;36.74
32197;BME280;18697;42.770;23.400;2023-03-20T09:50:10;95843.16;;;19.58;37.24
32197;BME280;18697;42.770;23.400;2023-03-20T09:52:57;95838.97;;;19.76;36.30
32197;BME280;18697;42.770;23.400;2023-03-20T09:55:38;95841.00;;;19.81;34.30
32197;BME280;18697;42.770;23.400;2023-03-20T09:58:25;95835.13;;;19.73;34.25
32197;BME280;18697;42.770;23.400;2023-03-20T10:00:55;95834.06;;;19.18;33.74
32197;BME280;18697;42.770;23.400;2023-03-20T10:03:31;95820.91;;;19.37;34.00
32197;BME280;18697;42.770;23.400;2023-03-20T10:06:05;95822.88;;;18.79;34.28
32197;BME280;18697;42.770;23.400;2023-03-20T10:08:36;95812.06;;;19.17;34.63
32197;BME280;18697;42.770;23.400;2023-03-20T10:13:50;95804.28;;;19.40;33.63
32197;BME280;18697;42.770;23.400;2023-03-20T10:19:02;95793.13;;;19.75;34.63
32197;BME280;18697;42.770;23.400;2023-03-20T10:21:43;95780.94;;;19.97;35.67
32197;BME280;18697;42.770;23.400;2023-03-20T10:24:35;95787.78;;;20.37;34.44
32197;BME280;18697;42.770;23.400;2023-03-20T10:27:16;95776.34;;;20.24;32.97
32197;BME280;18697;42.770;23.400;2023-03-20T10:32:53;95775.69;;;20.96;34.12
32197;BME280;18697;42.770;23.400;2023-03-20T10:35:17;95778.09;;;20.87;31.10
32197;BME280;18697;42.770;23.400;2023-03-20T10:40:24;95773.31;;;21.49;30.77
32197;BME280;18697;42.770;23.400;2023-03-20T10:42:53;95775.81;;;21.53;29.65
32197;BME280;18697;42.770;23.400;2023-03-20T10:47:50;95756.50;;;21.38;33.33
32197;BME280;18697;42.770;23.400;2023-03-20T10:50:18;95752.22;;;21.31;32.44
32197;BME280;18697;42.770;23.400;2023-03-20T10:52:46;95750.31;;;21.40;30.92
32197;BME280;18697;42.770;23.400;2023-03-20T10:55:17;95743.28;;;21.46;32.61
32197;BME280;18697;42.770;23.400;2023-03-20T10:58:01;95739.44;;;21.62;31.54
32197;BME280;18697;42.770;23.400;2023-03-20T11:00:27;95743.41;;;21.91;30.78
32197;BME280;18697;42.770;23.400;2023-03-20T11:02:53;95735.50;;;22.22;30.42
32197;BME280;18697;42.770;23.400;2023-03-20T11:05:29;95735.41;;;22.27;30.93
32197;BME280;18697;42.770;23.400;2023-03-20T11:08:05;95735.72;;;22.24;28.10
32197;BME280;18697;42.770;23.400;2023-03-20T11:10:34;95730.47;;;22.15;29.21
32197;BME280;18697;42.770;23.400;2023-03-20T11:13:15;95721.63;;;22.05;29.34
32197;BME280;18697;42.770;23.400;2023-03-20T11:15:46;95715.16;;;22.23;30.01
32197;BME280;18697;42.770;23.400;2023-03-20T11:18:14;95732.41;;;21.69;27.26
32197;BME280;18697;42.770;23.400;2023-03-20T11:20:53;95726.25;;;21.52;29.07
32197;BME280;18697;42.770;23.400;2023-03-20T11:23:27;95706.41;;;21.89;29.96
32197;BME280;18697;42.770;23.400;2023-03-20T11:28:31;95706.13;;;22.25;30.19
32197;BME280;18697;42.770;23.400;2023-03-20T11:31:01;95698.44;;;22.52;30.23
32197;BME280;18697;42.770;23.400;2023-03-20T11:33:28;95694.53;;;22.55;28.73
32197;BME280;18697;42.770;23.400;2023-03-20T11:35:55;95691.16;;;22.56;29.70
32197;BME280;18697;42.770;23.400;2023-03-20T11:38:22;95693.22;;;22.69;27.55
32197;BME280;18697;42.770;23.400;2023-03-20T11:40:49;95686.69;;;22.74;28.66
32197;BME280;18697;42.770;23.400;2023-03-20T11:43:22;95679.53;;;22.86;27.57
32197;BME280;18697;42.770;23.400;2023-03-20T11:45:52;95680.78;;;23.25;27.46
32197;BME280;18697;42.770;23.400;2023-03-20T11:48:35;95665.84;;;23.38;28.60
32197;BME280;18697;42.770;23.400;2023-03-20T11:51:06;95672.63;;;23.21;25.32
32197;BME280;18697;42.770;23.400;2023-03-20T11:56:20;95667.34;;;23.39;26.12
32197;BME280;18697;42.770;23.400;2023-03-20T12:01:20;95659.44;;;23.71;24.28
32197;BME280;18697;42.770;23.400;2023-03-20T12:04:01;95656.50;;;23.84;24.52
32197;BME280;18697;42.770;23.400;2023-03-20T12:07:00;95663.03;;;24.13;24.27
32197;BME280;18697;42.770;23.400;2023-03-20T12:09:37;95666.50;;;24.19;23.19
32197;BME280;18697;42.770;23.400;2023-03-20T12:17:45;95644.69;;;24.35;23.32
32197;BME280;18697;42.770;23.400;2023-03-20T12:23:23;95647.91;;;24.32;22.69
32197;BME280;18697;42.770;23.400;2023-03-20T12:26:04;95643.13;;;24.27;23.30
32197;BME280;18697;42.770;23.400;2023-03-20T12:28:55;95632.13;;;24.51;23.66
32197;BME280;18697;42.770;23.400;2023-03-20T12:34:12;95638.25;;;24.63;22.57
32197;BME280;18697;42.770;23.400;2023-03-20T12:36:43;95647.03;;;24.73;21.80
32197;BME280;18697;42.770;23.400;2023-03-20T12:39:14;95629.13;;;24.85;23.85
32197;BME280;18697;42.770;23.400;2023-03-20T12:42:06;95630.13;;;24.96;23.53
32197;BME280;18697;42.770;23.400;2023-03-20T12:58:20;95613.66;;;24.66;21.83
32197;BME280;18697;42.770;23.400;2023-03-20T13:01:04;95604.69;;;24.54;21.89
32197;BME280;18697;42.770;23.400;2023-03-20T13:03:43;95603.78;;;24.59;21.63
32197;BME280;18697;42.770;23.400;2023-03-20T13:11:49;95589.72;;;24.46;23.09
32197;BME280;18697;42.770;23.400;2023-03-20T13:27:56;95580.13;;;24.07;21.11
32197;BME280;18697;42.770;23.400;2023-03-20T13:30:54;95584.16;;;24.12;20.05
32197;BME280;18697;42.770;23.400;2023-03-20T13:38:57;95570.34;;;24.37;20.92
32197;BME280;18697;42.770;23.400;2023-03-20T13:41:25;95561.69;;;24.42;21.77
32197;BME280;18697;42.770;23.400;2023-03-20T13:44:00;95556.22;;;24.44;19.84
32197;BME280;18697;42.770;23.400;2023-03-20T13:46:35;95554.50;;;24.20;20.74
32197;BME280;18697;42.770;23.400;2023-03-20T13:49:32;95558.78;;;24.35;20.15
32197;BME280;18697;42.770;23.400;2023-03-20T13:52:30;95550.91;;;24.20;22.44
32197;BME280;18697;42.770;23.400;2023-03-20T13:58:07;95533.63;;;24.10;22.46
32197;BME280;18697;42.770;23.400;2023-03-20T14:05:42;95508.28;;;23.84;25.08
32197;BME280;18697;42.770;23.400;2023-03-20T14:13:54;95497.72;;;23.84;24.08
32197;BME280;18697;42.770;23.400;2023-03-20T14:16:21;95491.84;;;23.82;23.39
32197;BME280;18697;42.770;23.400;2023-03-20T14:18:49;95491.28;;;23.84;23.62
32197;BME280;18697;42.770;23.400;2023-03-20T14:21:19;95487.88;;;23.85;24.16
32197;BME280;18697;42.770;23.400;2023-03-20T14:23:49;95481.41;;;23.77;23.46
32197;BME280;18697;42.770;23.400;2023-03-20T14:26:26;95478.97;;;23.81;24.66
32197;BME280;18697;42.770;23.400;2023-03-20T14:31:32;95467.53;;;23.95;24.75
32197;BME280;18697;42.770;23.400;2023-03-20T14:41:55;95452.00;;;24.24;23.12
32197;BME280;18697;42.770;23.400;2023-03-20T14:47:05;95450.09;;;24.19;24.66
32197;BME280;18697;42.770;23.400;2023-03-20T14:49:44;95454.97;;;24.11;23.86
32197;BME280;18697;42.770;23.400;2023-03-20T14:52:30;95473.25;;;23.53;21.52
32197;BME280;18697;42.770;23.400;2023-03-20T14:55:45;95482.66;;;23.27;21.21
32197;BME280;18697;42.770;23.400;2023-03-20T14:58:34;95476.78;;;23.46;21.54
32197;BME280;18697;42.770;23.400;2023-03-20T15:01:05;95472.56;;;23.39;22.05
32197;BME280;18697;42.770;23.400;2023-03-20T15:03:31;95485.78;;;23.37;21.87
32197;BME280;18697;42.770;23.400;2023-03-20T15:05:59;95474.25;;;23.35;23.63
32197;BME280;18697;42.770;23.400;2023-03-20T15:08:30;95464.44;;;23.36;24.24
32197;BME280;18697;42.770;23.400;2023-03-20T15:11:04;95478.38;;;23.34;24.31
32197;BME280;18697;42.770;23.400;2023-03-20T15:13:33;95460.97;;;23.30;23.84
32197;BME280;18697;42.770;23.400;2023-03-20T15:16:05;95462.06;;;23.26;24.77
32197;BME280;18697;42.770;23.400;2023-03-20T15:18:36;95469.59;;;23.24;23.90
32197;BME280;18697;42.770;23.400;2023-03-20T15:21:02;95460.63;;;23.12;22.90
32197;BME280;18697;42.770;23.400;2023-03-20T15:23:28;95475.69;;;23.07;22.66
32197;BME280;18697;42.770;23.400;2023-03-20T15:25:53;95468.81;;;23.03;23.51
32197;BME280;18697;42.770;23.400;2023-03-20T15:28:24;95478.81;;;22.96;22.59